sensor_id;sensor_type;location;lat;lon;timestamp;pressure;altitude;pressure_sealevel;temperature;humidity
72585;BME280;60618;40.084;32.908;2022-09-28T00:02:22;89126.91;;;19.64;22.34
72585;BME280;60618;40.084;32.908;2022-09-28T00:04:49;89124.69;;;19.54;22.72
72585;BME280;60618;40.084;32.908;2022-09-28T00:07:16;89128.25;;;19.49;22.84
72585;BME280;60618;40.084;32.908;2022-09-28T00:09:43;89127.91;;;19.45;23.01
72585;BME280;60618;40.084;32.908;2022-09-28T00:12:10;89129.16;;;19.44;23.30
72585;BME280;60618;40.084;32.908;2022-09-28T00:14:36;89123.00;;;19.36;23.27
72585;BME280;60618;40.084;32.908;2022-09-28T00:17:03;89121.38;;;19.33;23.41
72585;BME280;60618;40.084;32.908;2022-09-28T00:19:30;89124.97;;;19.28;23.44
72585;BME280;60618;40.084;32.908;2022-09-28T00:21:57;89123.13;;;19.23;23.61
72585;BME280;60618;40.084;32.908;2022-09-28T00:24:24;89125.66;;;19.21;23.81
72585;BME280;60618;40.084;32.908;2022-09-28T00:26:54;89126.91;;;19.20;23.88
72585;BME280;60618;40.084;32.908;2022-09-28T00:31:52;89123.84;;;19.16;24.18
72585;BME280;60618;40.084;32.908;2022-09-28T00:34:19;89123.44;;;19.12;24.20
72585;BME280;60618;40.084;32.908;2022-09-28T00:36:47;89120.03;;;19.11;24.59
72585;BME280;60618;40.084;32.908;2022-09-28T00:39:15;89118.09;;;19.19;24.28
72585;BME280;60618;40.084;32.908;2022-09-28T00:41:43;89106.19;;;19.15;24.33
72585;BME280;60618;40.084;32.908;2022-09-28T00:46:55;89093.72;;;19.04;24.14
72585;BME280;60618;40.084;32.908;2022-09-28T00:49:32;89098.03;;;18.99;24.25
72585;BME280;60618;40.084;32.908;2022-09-28T00:52:00;89087.25;;;18.99;24.46
72585;BME280;60618;40.084;32.908;2022-09-28T00:54:30;89093.50;;;18.94;24.36
72585;BME280;60618;40.084;32.908;2022-09-28T00:56:58;89084.84;;;18.88;24.62
72585;BME280;60618;40.084;32.908;2022-09-28T00:59:26;89082.34;;;18.90;24.48
72585;BME280;60618;40.084;32.908;2022-09-28T01:01:53;89083.59;;;18.89;24.75
72585;BME280;60618;40.084;32.908;2022-09-28T01:04:21;89087.34;;;18.86;24.82
72585;BME280;60618;40.084;32.908;2022-09-28T01:06:54;89083.59;;;18.89;24.52
72585;BME280;60618;40.084;32.908;2022-09-28T01:09:24;89087.78;;;18.98;24.59
72585;BME280;60618;40.084;32.908;2022-09-28T01:11:51;89080.94;;;19.05;24.46
72585;BME280;60618;40.084;32.908;2022-09-28T01:14:18;89074.69;;;19.10;24.76
72585;BME280;60618;40.084;32.908;2022-09-28T01:16:55;89077.38;;;19.10;24.76
72585;BME280;60618;40.084;32.908;2022-09-28T01:28:14;89089.09;;;19.20;25.83
72585;BME280;60618;40.084;32.908;2022-09-28T01:30:47;89094.69;;;19.14;25.94
72585;BME280;60618;40.084;32.908;2022-09-28T01:33:21;89093.56;;;19.10;26.06
72585;BME280;60618;40.084;32.908;2022-09-28T01:35:59;89096.06;;;19.00;26.49
72585;BME280;60618;40.084;32.908;2022-09-28T01:38:35;89100.56;;;18.97;26.12
72585;BME280;60618;40.084;32.908;2022-09-28T01:41:04;89091.31;;;18.85;26.48
72585;BME280;60618;40.084;32.908;2022-09-28T01:43:36;89095.75;;;18.75;26.86
72585;BME280;60618;40.084;32.908;2022-09-28T01:46:19;89087.63;;;18.67;26.90
72585;BME280;60618;40.084;32.908;2022-09-28T01:48:54;89080.00;;;18.58;27.41
72585;BME280;60618;40.084;32.908;2022-09-28T01:51:35;89103.16;;;18.54;27.80
72585;BME280;60618;40.084;32.908;2022-09-28T01:54:18;89101.88;;;18.47;28.14
72585;BME280;60618;40.084;32.908;2022-09-28T01:56:51;89100.78;;;18.42;28.25
72585;BME280;60618;40.084;32.908;2022-09-28T01:59:27;89098.81;;;18.51;28.44
72585;BME280;60618;40.084;32.908;2022-09-28T02:02:30;89094.50;;;18.48;28.81
72585;BME280;60618;40.084;32.908;2022-09-28T02:05:15;89088.34;;;18.39;28.93
72585;BME280;60618;40.084;32.908;2022-09-28T02:07:50;89080.53;;;18.28;29.21
72585;BME280;60618;40.084;32.908;2022-09-28T02:10:24;89078.50;;;18.21;29.49
72585;BME280;60618;40.084;32.908;2022-09-28T02:13:03;89078.59;;;18.08;29.60
72585;BME280;60618;40.084;32.908;2022-09-28T02:15:55;89063.75;;;17.94;30.15
72585;BME280;60618;40.084;32.908;2022-09-28T02:18:23;89067.53;;;17.91;30.66
72585;BME280;60618;40.084;32.908;2022-09-28T02:20:59;89065.19;;;17.95;30.42
72585;BME280;60618;40.084;32.908;2022-09-28T02:23:27;89058.03;;;17.97;30.72
72585;BME280;60618;40.084;32.908;2022-09-28T02:26:05;89040.56;;;17.91;30.72
72585;BME280;60618;40.084;32.908;2022-09-28T02:28:34;89031.91;;;17.84;30.72
72585;BME280;60618;40.084;32.908;2022-09-28T02:31:01;89026.50;;;17.84;30.57
72585;BME280;60618;40.084;32.908;2022-09-28T02:33:33;89031.66;;;17.75;30.77
72585;BME280;60618;40.084;32.908;2022-09-28T02:36:02;89032.00;;;17.71;31.13
72585;BME280;60618;40.084;32.908;2022-09-28T02:38:30;89030.94;;;17.74;31.66
72585;BME280;60618;40.084;32.908;2022-09-28T02:41:25;89030.47;;;17.83;32.88
72585;BME280;60618;40.084;32.908;2022-09-28T02:44:14;89042.69;;;17.84;34.07
72585;BME280;60618;40.084;32.908;2022-09-28T02:46:49;89049.50;;;17.85;35.12
72585;BME280;60618;40.084;32.908;2022-09-28T02:52:19;89053.16;;;17.96;35.93
72585;BME280;60618;40.084;32.908;2022-09-28T02:55:19;89067.53;;;17.91;36.10
72585;BME280;60618;40.084;32.908;2022-09-28T03:01:18;89075.44;;;17.96;36.14
72585;BME280;60618;40.084;32.908;2022-09-28T03:07:00;89102.47;;;17.83;36.90
72585;BME280;60618;40.084;32.908;2022-09-28T03:09:44;89103.78;;;17.90;36.75
72585;BME280;60618;40.084;32.908;2022-09-28T03:12:14;89098.53;;;17.84;36.82
72585;BME280;60618;40.084;32.908;2022-09-28T03:14:44;89092.03;;;17.79;36.98
72585;BME280;60618;40.084;32.908;2022-09-28T03:17:11;89082.94;;;17.69;37.17
72585;BME280;60618;40.084;32.908;2022-09-28T03:19:38;89085.16;;;17.71;37.17
72585;BME280;60618;40.084;32.908;2022-09-28T03:22:05;89088.94;;;17.75;37.09
72585;BME280;60618;40.084;32.908;2022-09-28T03:24:32;89091.81;;;17.77;37.26
72585;BME280;60618;40.084;32.908;2022-09-28T03:26:59;89091.53;;;17.68;37.69
72585;BME280;60618;40.084;32.908;2022-09-28T03:29:25;89097.06;;;17.62;37.77
72585;BME280;60618;40.084;32.908;2022-09-28T03:31:52;89089.03;;;17.49;38.52
72585;BME280;60618;40.084;32.908;2022-09-28T03:34:19;89088.03;;;17.39;38.97
72585;BME280;60618;40.084;32.908;2022-09-28T03:36:46;89091.44;;;17.39;38.99
72585;BME280;60618;40.084;32.908;2022-09-28T03:39:13;89092.63;;;17.30;39.23
72585;BME280;60618;40.084;32.908;2022-09-28T03:41:40;89099.38;;;17.24;39.41
72585;BME280;60618;40.084;32.908;2022-09-28T03:44:07;89091.50;;;17.26;39.12
72585;BME280;60618;40.084;32.908;2022-09-28T03:46:33;89100.31;;;17.26;39.27
72585;BME280;60618;40.084;32.908;2022-09-28T03:49:00;89103.75;;;17.48;37.71
72585;BME280;60618;40.084;32.908;2022-09-28T03:51:27;89109.47;;;17.65;37.46
72585;BME280;60618;40.084;32.908;2022-09-28T03:53:54;89123.97;;;17.75;37.68
72585;BME280;60618;40.084;32.908;2022-09-28T03:56:21;89124.03;;;17.83;37.66
72585;BME280;60618;40.084;32.908;2022-09-28T03:58:47;89119.81;;;17.95;37.58
72585;BME280;60618;40.084;32.908;2022-09-28T04:01:14;89114.19;;;18.06;38.05
72585;BME280;60618;40.084;32.908;2022-09-28T04:03:44;89112.31;;;18.22;37.42
72585;BME280;60618;40.084;32.908;2022-09-28T04:06:11;89124.75;;;18.25;37.49
72585;BME280;60618;40.084;32.908;2022-09-28T04:08:38;89120.13;;;18.33;37.82
72585;BME280;60618;40.084;32.908;2022-09-28T04:11:05;89119.03;;;18.08;38.41
72585;BME280;60618;40.084;32.908;2022-09-28T04:13:32;89121.97;;;17.76;39.18
72585;BME280;60618;40.084;32.908;2022-09-28T04:15:59;89145.13;;;17.71;39.36
72585;BME280;60618;40.084;32.908;2022-09-28T04:18:27;89142.84;;;17.62;39.54
72585;BME280;60618;40.084;32.908;2022-09-28T04:21:06;89140.47;;;17.58;39.73
72585;BME280;60618;40.084;32.908;2022-09-28T04:23:37;89141.38;;;17.61;39.73
72585;BME280;60618;40.084;32.908;2022-09-28T04:26:06;89141.78;;;17.65;39.98
72585;BME280;60618;40.084;32.908;2022-09-28T04:28:33;89133.38;;;17.69;39.87
72585;BME280;60618;40.084;32.908;2022-09-28T04:31:00;89141.38;;;17.61;39.99
72585;BME280;60618;40.084;32.908;2022-09-28T04:33:27;89139.75;;;17.58;40.29
72585;BME280;60618;40.084;32.908;2022-09-28T04:35:54;89149.25;;;17.59;39.90
72585;BME280;60618;40.084;32.908;2022-09-28T04:38:20;89156.91;;;17.68;40.08
72585;BME280;60618;40.084;32.908;2022-09-28T04:41:07;89149.34;;;18.01;39.42
72585;BME280;60618;40.084;32.908;2022-09-28T04:43:33;89161.53;;;18.23;38.79
72585;BME280;60618;40.084;32.908;2022-09-28T04:46:01;89167.44;;;18.42;38.17
72585;BME280;60618;40.084;32.908;2022-09-28T04:48:28;89160.31;;;18.73;37.56
72585;BME280;60618;40.084;32.908;2022-09-28T04:50:56;89156.47;;;19.25;36.25
72585;BME280;60618;40.084;32.908;2022-09-28T04:53:25;89159.94;;;19.41;36.37
72585;BME280;60618;40.084;32.908;2022-09-28T04:56:04;89146.28;;;19.54;36.06
72585;BME280;60618;40.084;32.908;2022-09-28T04:58:33;89147.84;;;19.78;35.76
72585;BME280;60618;40.084;32.908;2022-09-28T05:01:03;89144.72;;;19.67;35.59
72585;BME280;60618;40.084;32.908;2022-09-28T05:03:30;89140.28;;;19.33;35.98
72585;BME280;60618;40.084;32.908;2022-09-28T05:05:57;89150.63;;;19.06;36.75
72585;BME280;60618;40.084;32.908;2022-09-28T05:08:24;89151.28;;;18.99;36.93
72585;BME280;60618;40.084;32.908;2022-09-28T05:11:04;89162.16;;;18.78;37.29
72585;BME280;60618;40.084;32.908;2022-09-28T05:13:32;89164.66;;;18.76;37.48
72585;BME280;60618;40.084;32.908;2022-09-28T05:15:59;89166.78;;;18.70;37.41
72585;BME280;60618;40.084;32.908;2022-09-28T05:18:31;89168.41;;;18.73;37.59
72585;BME280;60618;40.084;32.908;2022-09-28T05:20:57;89163.16;;;18.67;37.23
72585;BME280;60618;40.084;32.908;2022-09-28T05:23:24;89160.59;;;18.62;37.33
72585;BME280;60618;40.084;32.908;2022-09-28T05:25:51;89161.13;;;18.60;37.21
72585;BME280;60618;40.084;32.908;2022-09-28T05:28:23;89164.53;;;18.61;37.27
72585;BME280;60618;40.084;32.908;2022-09-28T05:30:50;89161.00;;;18.66;37.41
72585;BME280;60618;40.084;32.908;2022-09-28T05:33:17;89168.22;;;18.71;37.34
72585;BME280;60618;40.084;32.908;2022-09-28T05:35:44;89160.31;;;18.73;37.24
72585;BME280;60618;40.084;32.908;2022-09-28T05:38:16;89160.31;;;18.73;37.49
72585;BME280;60618;40.084;32.908;2022-09-28T05:40:43;89161.03;;;18.74;37.90
72585;BME280;60618;40.084;32.908;2022-09-28T05:43:10;89154.56;;;18.77;37.80
72585;BME280;60618;40.084;32.908;2022-09-28T05:45:37;89151.75;;;18.82;37.95
72585;BME280;60618;40.084;32.908;2022-09-28T05:48:03;89162.19;;;18.86;37.95
72585;BME280;60618;40.084;32.908;2022-09-28T05:50:30;89162.63;;;18.97;37.71
72585;BME280;60618;40.084;32.908;2022-09-28T05:53:05;89154.66;;;18.92;37.76
72585;BME280;60618;40.084;32.908;2022-09-28T05:55:33;89164.38;;;18.95;37.97
72585;BME280;60618;40.084;32.908;2022-09-28T05:58:03;89169.84;;;19.03;38.18
72585;BME280;60618;40.084;32.908;2022-09-28T06:00:31;89173.47;;;19.13;38.16
72585;BME280;60618;40.084;32.908;2022-09-28T06:03:00;89170.09;;;19.20;38.39
72585;BME280;60618;40.084;32.908;2022-09-28T06:05:34;89167.91;;;19.11;38.33
72585;BME280;60618;40.084;32.908;2022-09-28T06:08:02;89169.38;;;19.19;38.31
72585;BME280;60618;40.084;32.908;2022-09-28T06:10:30;89166.47;;;19.10;38.66
72585;BME280;60618;40.084;32.908;2022-09-28T06:12:57;89171.00;;;19.22;38.78
72585;BME280;60618;40.084;32.908;2022-09-28T06:15:26;89173.56;;;19.28;39.24
72585;BME280;60618;40.084;32.908;2022-09-28T06:17:57;89177.03;;;19.36;39.08
72585;BME280;60618;40.084;32.908;2022-09-28T06:20:25;89177.19;;;19.38;39.63
72585;BME280;60618;40.084;32.908;2022-09-28T06:22:52;89175.41;;;19.41;40.21
72585;BME280;60618;40.084;32.908;2022-09-28T06:25:21;89172.56;;;19.46;40.48
72585;BME280;60618;40.084;32.908;2022-09-28T06:28:09;89171.59;;;19.72;40.80
72585;BME280;60618;40.084;32.908;2022-09-28T06:30:37;89171.66;;;19.95;40.72
72585;BME280;60618;40.084;32.908;2022-09-28T06:33:05;89177.03;;;19.88;40.91
72585;BME280;60618;40.084;32.908;2022-09-28T06:35:33;89172.94;;;20.09;40.87
72585;BME280;60618;40.084;32.908;2022-09-28T06:38:01;89165.91;;;20.29;40.84
72585;BME280;60618;40.084;32.908;2022-09-28T06:40:28;89164.69;;;20.53;40.60
72585;BME280;60618;40.084;32.908;2022-09-28T06:43:05;89166.81;;;20.93;40.15
72585;BME280;60618;40.084;32.908;2022-09-28T06:45:32;89158.66;;;21.08;40.01
72585;BME280;60618;40.084;32.908;2022-09-28T06:47:59;89162.66;;;21.00;40.22
72585;BME280;60618;40.084;32.908;2022-09-28T06:50:29;89161.16;;;21.21;40.35
72585;BME280;60618;40.084;32.908;2022-09-28T06:52:58;89159.34;;;21.39;40.31
72585;BME280;60618;40.084;32.908;2022-09-28T06:55:25;89171.97;;;21.37;40.59
72585;BME280;60618;40.084;32.908;2022-09-28T06:58:00;89159.72;;;21.28;41.16
72585;BME280;60618;40.084;32.908;2022-09-28T07:00:29;89162.25;;;21.18;41.51
72585;BME280;60618;40.084;32.908;2022-09-28T07:02:56;89165.63;;;21.42;41.43
72585;BME280;60618;40.084;32.908;2022-09-28T07:05:22;89153.84;;;21.47;41.25
72585;BME280;60618;40.084;32.908;2022-09-28T07:07:49;89146.72;;;21.27;41.72
72585;BME280;60618;40.084;32.908;2022-09-28T07:10:16;89131.53;;;21.23;42.23
72585;BME280;60618;40.084;32.908;2022-09-28T07:12:43;89140.69;;;21.43;42.23
72585;BME280;60618;40.084;32.908;2022-09-28T07:15:10;89150.19;;;21.67;41.18
72585;BME280;60618;40.084;32.908;2022-09-28T07:17:37;89146.28;;;21.86;41.24
72585;BME280;60618;40.084;32.908;2022-09-28T07:20:28;89151.97;;;22.05;40.79
72585;BME280;60618;40.084;32.908;2022-09-28T07:22:57;89153.75;;;22.10;39.98
72585;BME280;60618;40.084;32.908;2022-09-28T07:25:41;89150.53;;;22.04;40.84
72585;BME280;60618;40.084;32.908;2022-09-28T07:28:08;89143.88;;;21.97;41.14
72585;BME280;60618;40.084;32.908;2022-09-28T07:30:35;89152.41;;;21.94;41.59
72585;BME280;60618;40.084;32.908;2022-09-28T07:33:03;89161.88;;;22.10;40.45
72585;BME280;60618;40.084;32.908;2022-09-28T07:35:31;89145.78;;;22.37;40.89
72585;BME280;60618;40.084;32.908;2022-09-28T07:37:59;89155.06;;;22.59;39.79
72585;BME280;60618;40.084;32.908;2022-09-28T07:40:26;89157.06;;;22.33;39.94
72585;BME280;60618;40.084;32.908;2022-09-28T07:42:53;89148.13;;;22.16;40.66
72585;BME280;60618;40.084;32.908;2022-09-28T07:45:21;89143.22;;;22.47;39.84
72585;BME280;60618;40.084;32.908;2022-09-28T07:47:49;89132.97;;;22.13;39.73
72585;BME280;60618;40.084;32.908;2022-09-28T07:50:16;89134.41;;;22.14;39.61
72585;BME280;60618;40.084;32.908;2022-09-28T07:52:43;89144.97;;;22.52;39.34
72585;BME280;60618;40.084;32.908;2022-09-28T07:55:09;89141.44;;;22.84;38.53
72585;BME280;60618;40.084;32.908;2022-09-28T07:57:36;89139.16;;;22.98;38.34
72585;BME280;60618;40.084;32.908;2022-09-28T08:00:03;89134.88;;;23.12;38.16
72585;BME280;60618;40.084;32.908;2022-09-28T08:02:30;89134.66;;;22.75;38.18
72585;BME280;60618;40.084;32.908;2022-09-28T08:04:57;89151.84;;;22.53;38.61
72585;BME280;60618;40.084;32.908;2022-09-28T08:07:24;89140.09;;;22.75;38.46
72585;BME280;60618;40.084;32.908;2022-09-28T08:09:51;89159.97;;;23.03;38.88
72585;BME280;60618;40.084;32.908;2022-09-28T08:12:19;89149.19;;;23.30;38.32
72585;BME280;60618;40.084;32.908;2022-09-28T08:14:46;89135.34;;;23.35;37.76
72585;BME280;60618;40.084;32.908;2022-09-28T08:17:13;89135.09;;;23.23;37.53
72585;BME280;60618;40.084;32.908;2022-09-28T08:19:40;89134.22;;;23.56;37.97
72585;BME280;60618;40.084;32.908;2022-09-28T08:22:07;89136.28;;;22.96;38.53
72585;BME280;60618;40.084;32.908;2022-09-28T08:24:34;89135.16;;;22.99;38.28
72585;BME280;60618;40.084;32.908;2022-09-28T08:27:01;89142.38;;;23.04;38.15
72585;BME280;60618;40.084;32.908;2022-09-28T08:29:27;89112.66;;;22.63;39.25
72585;BME280;60618;40.084;32.908;2022-09-28T08:31:54;89130.81;;;22.78;38.71
72585;BME280;60618;40.084;32.908;2022-09-28T08:34:26;89116.72;;;22.97;38.67
72585;BME280;60618;40.084;32.908;2022-09-28T08:36:56;89106.72;;;23.17;37.69
72585;BME280;60618;40.084;32.908;2022-09-28T08:39:23;89105.28;;;23.33;37.06
72585;BME280;60618;40.084;32.908;2022-09-28T08:44:58;89106.50;;;23.05;37.35
72585;BME280;60618;40.084;32.908;2022-09-28T09:31:16;89126.91;;;25.41;33.75
72585;BME280;60618;40.084;32.908;2022-09-28T09:34:11;89131.13;;;24.40;36.35
72585;BME280;60618;40.084;32.908;2022-09-28T09:40:16;89115.31;;;24.29;36.32
72585;BME280;60618;40.084;32.908;2022-09-28T09:42:27;89116.03;;;24.66;36.36
72585;BME280;60618;40.084;32.908;2022-09-28T09:45:03;89123.25;;;24.90;35.74
72585;BME280;60618;40.084;32.908;2022-09-28T09:47:40;89122.38;;;24.88;36.10
72585;BME280;60618;40.084;32.908;2022-09-28T09:50:24;89115.44;;;25.24;35.27
72585;BME280;60618;40.084;32.908;2022-09-28T09:58:42;89104.09;;;24.52;36.43
72585;BME280;60618;40.084;32.908;2022-09-28T10:01:12;89096.41;;;24.68;36.33
72585;BME280;60618;40.084;32.908;2022-09-28T10:03:42;89086.44;;;24.99;35.84
72585;BME280;60618;40.084;32.908;2022-09-28T10:06:16;89090.81;;;24.29;36.28
72585;BME280;60618;40.084;32.908;2022-09-28T10:08:49;89102.78;;;24.53;36.57
72585;BME280;60618;40.084;32.908;2022-09-28T10:11:21;89102.78;;;24.53;35.89
72585;BME280;60618;40.084;32.908;2022-09-28T10:13:51;89092.41;;;24.88;35.13
72585;BME280;60618;40.084;32.908;2022-09-28T10:16:18;89094.28;;;24.95;35.08
72585;BME280;60618;40.084;32.908;2022-09-28T10:18:46;89095.50;;;25.21;34.67
72585;BME280;60618;40.084;32.908;2022-09-28T10:21:15;89097.94;;;25.27;34.71
72585;BME280;60618;40.084;32.908;2022-09-28T10:23:44;89106.97;;;25.78;34.06
72585;BME280;60618;40.084;32.908;2022-09-28T10:26:24;89099.22;;;26.44;32.84
72585;BME280;60618;40.084;32.908;2022-09-28T10:29:00;89084.00;;;25.81;33.36
72585;BME280;60618;40.084;32.908;2022-09-28T10:34:07;89068.78;;;24.34;36.42
72585;BME280;60618;40.084;32.908;2022-09-28T10:37:05;89091.72;;;23.77;37.15
72585;BME280;60618;40.084;32.908;2022-09-28T10:39:33;89083.50;;;23.68;37.81
72585;BME280;60618;40.084;32.908;2022-09-28T10:42:05;89075.31;;;23.85;37.68
72585;BME280;60618;40.084;32.908;2022-09-28T10:44:34;89084.63;;;24.55;36.60
72585;BME280;60618;40.084;32.908;2022-09-28T10:47:13;89099.66;;;24.56;36.11
72585;BME280;60618;40.084;32.908;2022-09-28T10:49:43;89091.69;;;24.78;35.97
72585;BME280;60618;40.084;32.908;2022-09-28T10:54:58;89078.63;;;24.76;35.87
72585;BME280;60618;40.084;32.908;2022-09-28T10:57:34;89079.69;;;24.90;36.25
72585;BME280;60618;40.084;32.908;2022-09-28T11:00:03;89083.03;;;25.08;35.63
72585;BME280;60618;40.084;32.908;2022-09-28T11:02:35;89077.22;;;24.95;35.84
72585;BME280;60618;40.084;32.908;2022-09-28T11:05:04;89064.28;;;24.20;37.28
72585;BME280;60618;40.084;32.908;2022-09-28T11:07:33;89065.81;;;24.50;37.22
72585;BME280;60618;40.084;32.908;2022-09-28T11:10:19;89062.03;;;25.01;36.58
72585;BME280;60618;40.084;32.908;2022-09-28T11:12:48;89082.56;;;25.31;35.97
72585;BME280;60618;40.084;32.908;2022-09-28T11:15:20;89072.97;;;25.40;35.93
72585;BME280;60618;40.084;32.908;2022-09-28T11:17:48;89072.66;;;25.07;36.21
72585;BME280;60618;40.084;32.908;2022-09-28T11:23:16;89085.47;;;24.48;37.38
72585;BME280;60618;40.084;32.908;2022-09-28T11:26:04;89077.78;;;24.27;37.99
72585;BME280;60618;40.084;32.908;2022-09-28T11:28:36;89076.38;;;23.99;38.41
72585;BME280;60618;40.084;32.908;2022-09-28T11:31:05;89079.22;;;23.92;38.53
72585;BME280;60618;40.084;32.908;2022-09-28T11:33:37;89074.22;;;23.71;39.04
72585;BME280;60618;40.084;32.908;2022-09-28T11:44:38;89068.88;;;23.63;39.21
72585;BME280;60618;40.084;32.908;2022-09-28T11:50:02;89070.09;;;23.79;39.21
72585;BME280;60618;40.084;32.908;2022-09-28T11:52:43;89076.53;;;24.01;38.81
72585;BME280;60618;40.084;32.908;2022-09-28T11:55:42;89073.19;;;24.30;38.49
72585;BME280;60618;40.084;32.908;2022-09-28T12:00:49;89058.03;;;25.31;36.49
72585;BME280;60618;40.084;32.908;2022-09-28T12:03:22;89068.88;;;24.63;37.08
72585;BME280;60618;40.084;32.908;2022-09-28T12:06:02;89067.97;;;23.78;39.11
72585;BME280;60618;40.084;32.908;2022-09-28T12:08:34;89074.94;;;23.98;39.15
72585;BME280;60618;40.084;32.908;2022-09-28T12:11:14;89075.25;;;24.02;38.66
72585;BME280;60618;40.084;32.908;2022-09-28T12:13:46;89073.69;;;24.09;39.05
72585;BME280;60618;40.084;32.908;2022-09-28T12:16:23;89084.53;;;23.99;38.76
72585;BME280;60618;40.084;32.908;2022-09-28T12:19:32;89072.25;;;23.81;39.34
72585;BME280;60618;40.084;32.908;2022-09-28T12:22:09;89082.31;;;23.88;39.19
72585;BME280;60618;40.084;32.908;2022-09-28T12:24:46;89071.22;;;23.49;40.28
72585;BME280;60618;40.084;32.908;2022-09-28T12:27:36;89076.16;;;23.61;39.79
72585;BME280;60618;40.084;32.908;2022-09-28T12:30:18;89073.91;;;23.67;39.78
72585;BME280;60618;40.084;32.908;2022-09-28T12:33:05;89060.28;;;23.84;39.56
72585;BME280;60618;40.084;32.908;2022-09-28T12:42:03;89058.41;;;23.60;40.35
72585;BME280;60618;40.084;32.908;2022-09-28T12:55:52;89061.03;;;23.94;38.30
72585;BME280;60618;40.084;32.908;2022-09-28T12:58:33;89054.91;;;24.03;37.87
72585;BME280;60618;40.084;32.908;2022-09-28T13:07:04;89069.44;;;23.62;37.98
72585;BME280;60618;40.084;32.908;2022-09-28T13:09:57;89047.09;;;23.90;37.53
72585;BME280;60618;40.084;32.908;2022-09-28T13:18:20;89048.25;;;23.87;37.40
72585;BME280;60618;40.084;32.908;2022-09-28T13:23:26;89047.22;;;24.10;36.61
72585;BME280;60618;40.084;32.908;2022-09-28T13:26:03;89055.03;;;23.96;37.24
72585;BME280;60618;40.084;32.908;2022-09-28T13:28:33;89054.81;;;24.11;36.58
72585;BME280;60618;40.084;32.908;2022-09-28T13:31:02;89053.34;;;24.37;36.20
72585;BME280;60618;40.084;32.908;2022-09-28T13:33:31;89049.31;;;24.01;37.11
72585;BME280;60618;40.084;32.908;2022-09-28T13:35:59;89051.91;;;23.72;37.29
72585;BME280;60618;40.084;32.908;2022-09-28T13:43:41;89056.78;;;24.01;37.04
72585;BME280;60618;40.084;32.908;2022-09-28T13:57:47;89052.16;;;23.94;36.45
72585;BME280;60618;40.084;32.908;2022-09-28T14:00:31;89054.22;;;23.76;36.89
72585;BME280;60618;40.084;32.908;2022-09-28T14:03:23;89053.31;;;23.64;37.34
72585;BME280;60618;40.084;32.908;2022-09-28T14:08:44;89051.38;;;23.57;37.32
72585;BME280;60618;40.084;32.908;2022-09-28T14:14:00;89054.81;;;23.57;37.33
72585;BME280;60618;40.084;32.908;2022-09-28T14:16:29;89052.97;;;23.60;37.53
72585;BME280;60618;40.084;32.908;2022-09-28T14:19:01;89061.66;;;23.75;37.53
72585;BME280;60618;40.084;32.908;2022-09-28T14:30:26;89080.63;;;23.93;38.53
72585;BME280;60618;40.084;32.908;2022-09-28T14:33:24;89078.22;;;23.97;39.38
72585;BME280;60618;40.084;32.908;2022-09-28T14:38:44;89086.03;;;23.83;40.67
72585;BME280;60618;40.084;32.908;2022-09-28T14:48:50;89085.47;;;23.23;42.02
72585;BME280;60618;40.084;32.908;2022-09-28T14:53:53;89089.13;;;22.83;42.72
72585;BME280;60618;40.084;32.908;2022-09-28T14:56:22;89083.53;;;22.81;42.32
72585;BME280;60618;40.084;32.908;2022-09-28T14:58:56;89097.19;;;22.74;42.67
72585;BME280;60618;40.084;32.908;2022-09-28T15:01:25;89102.06;;;22.75;42.51
72585;BME280;60618;40.084;32.908;2022-09-28T15:03:56;89114.59;;;22.71;42.63
72585;BME280;60618;40.084;32.908;2022-09-28T15:06:25;89101.47;;;22.59;43.04
72585;BME280;60618;40.084;32.908;2022-09-28T15:08:51;89103.47;;;22.59;42.95
72585;BME280;60618;40.084;32.908;2022-09-28T15:11:24;89111.78;;;22.61;42.61
72585;BME280;60618;40.084;32.908;2022-09-28T15:14:05;89105.53;;;22.51;43.19
72585;BME280;60618;40.084;32.908;2022-09-28T15:16:33;89106.38;;;22.36;43.54
72585;BME280;60618;40.084;32.908;2022-09-28T15:19:17;89108.75;;;22.32;43.30
72585;BME280;60618;40.084;32.908;2022-09-28T15:21:48;89108.41;;;22.28;43.46
72585;BME280;60618;40.084;32.908;2022-09-28T15:24:29;89106.50;;;22.21;43.84
72585;BME280;60618;40.084;32.908;2022-09-28T15:26:57;89108.75;;;22.07;44.26
72585;BME280;60618;40.084;32.908;2022-09-28T15:29:25;89110.59;;;21.97;44.43
72585;BME280;60618;40.084;32.908;2022-09-28T15:31:52;89117.47;;;21.98;44.53
72585;BME280;60618;40.084;32.908;2022-09-28T15:34:30;89109.34;;;21.98;44.61
72585;BME280;60618;40.084;32.908;2022-09-28T15:36:57;89116.88;;;21.74;45.39
72585;BME280;60618;40.084;32.908;2022-09-28T15:39:30;89121.66;;;21.59;45.93
72585;BME280;60618;40.084;32.908;2022-09-28T15:41:58;89125.84;;;21.52;46.23
72585;BME280;60618;40.084;32.908;2022-09-28T15:44:36;89137.78;;;21.49;46.30
72585;BME280;60618;40.084;32.908;2022-09-28T15:47:07;89128.97;;;21.41;46.85
72585;BME280;60618;40.084;32.908;2022-09-28T15:52:05;89139.84;;;21.25;47.06
72585;BME280;60618;40.084;32.908;2022-09-28T15:54:41;89137.84;;;21.26;46.82
72585;BME280;60618;40.084;32.908;2022-09-28T15:57:37;89148.53;;;21.32;46.50
72585;BME280;60618;40.084;32.908;2022-09-28T16:00:25;89147.41;;;21.35;46.17
72585;BME280;60618;40.084;32.908;2022-09-28T16:05:39;89163.31;;;21.23;48.12
72585;BME280;60618;40.084;32.908;2022-09-28T16:11:29;89168.28;;;20.71;51.52
72585;BME280;60618;40.084;32.908;2022-09-28T16:14:16;89171.38;;;20.67;51.93
72585;BME280;60618;40.084;32.908;2022-09-28T16:16:47;89159.44;;;20.71;51.82
72585;BME280;60618;40.084;32.908;2022-09-28T16:19:22;89162.69;;;20.61;52.09
72585;BME280;60618;40.084;32.908;2022-09-28T16:21:51;89161.59;;;20.57;52.27